createdAt,value
2023-01-04T00:01:24.216Z,19.52
2023-01-04T00:03:57.592Z,19.52
2023-01-04T00:06:30.918Z,18.92
2023-01-04T00:09:04.061Z,19.85
2023-01-04T00:11:37.332Z,23.15
2023-01-04T00:14:12.110Z,18.65
2023-01-04T00:16:47.418Z,19.33
2023-01-04T00:19:21.275Z,19.83
2023-01-04T00:21:54.503Z,17.48
2023-01-04T00:24:27.718Z,17.98
2023-01-04T00:29:34.507Z,15.80
2023-01-04T00:32:09.154Z,17.90
2023-01-04T00:34:42.571Z,16.05
2023-01-04T00:37:15.995Z,17.30
2023-01-04T00:39:49.272Z,17.95
2023-01-04T00:42:22.801Z,17.13
2023-01-04T00:44:56.108Z,16.50
2023-01-04T00:47:30.965Z,16.42
2023-01-04T00:50:04.987Z,14.70
2023-01-04T00:52:38.584Z,15.32
2023-01-04T00:55:11.909Z,15.32
2023-01-04T00:57:45.088Z,17.35
2023-01-04T01:00:18.758Z,17.80
2023-01-04T01:02:53.622Z,18.70
2023-01-04T01:05:27.656Z,16.27
2023-01-04T01:08:21.475Z,16.45
2023-01-04T01:10:55.593Z,14.37
2023-01-04T01:13:29.599Z,15.98
2023-01-04T01:16:06.547Z,15.82
2023-01-04T01:18:43.249Z,15.20
2023-01-04T01:21:20.570Z,15.38
2023-01-04T01:23:55.273Z,13.82
2023-01-04T01:26:28.925Z,14.55
2023-01-04T01:29:02.412Z,14.85
2023-01-04T01:31:35.863Z,15.57
2023-01-04T01:34:10.856Z,14.00
2023-01-04T01:36:43.945Z,15.00
2023-01-04T01:39:17.278Z,14.50
2023-01-04T01:41:50.965Z,15.05
2023-01-04T01:47:20.307Z,15.45
2023-01-04T01:49:55.966Z,16.88
2023-01-04T01:52:36.545Z,15.52
2023-01-04T01:55:12.985Z,18.85
2023-01-04T01:57:50.818Z,23.00
2023-01-04T02:00:24.447Z,22.83
2023-01-04T02:03:14.312Z,25.92
2023-01-04T02:05:53.517Z,27.58
2023-01-04T02:08:27.679Z,28.88
2023-01-04T02:11:00.976Z,26.60
2023-01-04T02:13:55.785Z,27.20
2023-01-04T02:16:40.884Z,28.40
2023-01-04T02:19:38.203Z,26.88
2023-01-04T02:22:50.284Z,26.02
2023-01-04T02:25:53.500Z,21.77
2023-01-04T02:28:43.478Z,19.25
2023-01-04T02:31:29.184Z,18.65
2023-01-04T02:34:09.537Z,19.70
2023-01-04T02:36:54.805Z,20.48
2023-01-04T02:39:38.522Z,19.08
2023-01-04T02:42:24.323Z,20.60
2023-01-04T02:45:04.229Z,18.50
2023-01-04T02:47:58.029Z,19.95
2023-01-04T02:50:34.190Z,18.92
2023-01-04T02:53:12.270Z,19.63
2023-01-04T02:55:52.909Z,19.70
2023-01-04T02:58:46.266Z,20.88
2023-01-04T03:01:47.302Z,19.08
2023-01-04T03:04:53.410Z,22.88
2023-01-04T03:07:30.897Z,21.80
2023-01-04T03:10:09.177Z,24.40
2023-01-04T03:12:47.828Z,25.52
2023-01-04T03:15:24.929Z,23.50
2023-01-04T03:18:01.756Z,22.13
2023-01-04T03:20:36.575Z,21.67
2023-01-04T03:23:31.644Z,21.08
2023-01-04T03:26:26.957Z,19.48
2023-01-04T03:29:25.053Z,18.73
2023-01-04T03:32:35.186Z,18.75
2023-01-04T03:35:24.163Z,19.08
2023-01-04T03:38:23.427Z,18.42
2023-01-04T03:41:20.434Z,19.13
2023-01-04T03:44:20.462Z,16.73
2023-01-04T03:47:15.364Z,18.38
2023-01-04T03:49:57.568Z,20.70
2023-01-04T03:52:33.151Z,19.55
2023-01-04T03:55:10.783Z,19.63
2023-01-04T03:57:45.409Z,20.58
2023-01-04T04:00:20.440Z,17.77
2023-01-04T04:02:53.968Z,17.15
2023-01-04T04:05:44.837Z,15.68
2023-01-04T04:08:29.882Z,17.15
2023-01-04T04:11:18.827Z,16.83
2023-01-04T04:13:52.556Z,16.00
2023-01-04T04:19:06.338Z,16.63
2023-01-04T04:21:42.115Z,17.00
2023-01-04T04:24:19.183Z,17.38
2023-01-04T04:26:55.955Z,15.98
2023-01-04T04:29:29.564Z,15.63
2023-01-04T04:32:02.786Z,17.02
2023-01-04T04:37:10.197Z,16.00
2023-01-04T04:39:43.415Z,19.92
2023-01-04T04:42:16.946Z,18.55
2023-01-04T04:47:23.431Z,19.23
2023-01-04T04:49:56.826Z,21.77
2023-01-04T04:55:04.200Z,20.20
2023-01-04T04:57:38.817Z,21.98
2023-01-04T05:00:13.882Z,21.48
2023-01-04T05:02:47.527Z,21.55
2023-01-04T05:05:21.280Z,22.10
2023-01-04T05:10:28.408Z,25.58
2023-01-04T05:15:39.874Z,25.42
2023-01-04T05:18:15.781Z,26.02
2023-01-04T05:20:49.711Z,27.08
2023-01-04T05:23:23.528Z,28.02
2023-01-04T05:25:59.842Z,32.33
2023-01-04T05:28:35.807Z,29.17
2023-01-04T05:31:08.724Z,42.75
2023-01-04T05:33:42.172Z,36.05
2023-01-04T05:38:49.136Z,23.17
2023-01-04T05:41:39.560Z,26.00
2023-01-04T05:44:14.582Z,25.98
2023-01-04T05:46:48.329Z,26.70
2023-01-04T05:49:21.619Z,39.15
2023-01-04T05:51:54.944Z,41.72
2023-01-04T05:54:28.192Z,43.13
2023-01-04T05:57:01.676Z,46.67
2023-01-04T05:59:41.571Z,57.92
2023-01-04T06:02:18.388Z,44.33
2023-01-04T06:04:58.391Z,40.67
2023-01-04T06:07:32.978Z,35.70
2023-01-04T06:10:08.358Z,39.15
2023-01-04T06:12:42.724Z,37.83
2023-01-04T06:15:17.814Z,40.22
2023-01-04T06:17:51.711Z,35.50
2023-01-04T06:20:25.120Z,33.65
2023-01-04T06:22:58.362Z,35.05
2023-01-04T06:25:31.855Z,32.22
2023-01-04T06:28:05.425Z,32.78
2023-01-04T06:30:40.077Z,31.38
2023-01-04T06:33:13.472Z,24.80
2023-01-04T06:35:54.328Z,26.20
2023-01-04T06:38:28.040Z,27.27
2023-01-04T06:41:01.734Z,26.75
2023-01-04T06:43:36.249Z,26.92
2023-01-04T06:46:11.158Z,29.42
2023-01-04T06:48:44.400Z,29.10
2023-01-04T06:51:17.828Z,40.20
2023-01-04T06:56:25.229Z,36.75
2023-01-04T06:58:59.529Z,47.67
2023-01-04T07:01:34.704Z,51.03
2023-01-04T07:04:08.164Z,65.57
2023-01-04T07:06:41.560Z,79.07
2023-01-04T07:09:15.048Z,72.05
2023-01-04T07:11:51.738Z,66.53
2023-01-04T07:14:25.362Z,58.25
2023-01-04T07:17:01.184Z,58.70
2023-01-04T07:19:34.636Z,66.07
2023-01-04T07:22:08.286Z,49.42
2023-01-04T07:24:43.198Z,43.33
2023-01-04T07:27:16.801Z,93.35
2023-01-04T07:29:50.705Z,99.10
2023-01-04T07:32:25.333Z,68.35
2023-01-04T07:34:59.500Z,46.17
2023-01-04T07:37:33.105Z,60.47
2023-01-04T07:40:07.943Z,58.10
2023-01-04T07:42:41.315Z,56.83
2023-01-04T07:45:14.817Z,58.00
2023-01-04T07:47:49.680Z,55.72
2023-01-04T07:50:23.067Z,52.20
2023-01-04T07:52:57.251Z,50.28
2023-01-04T07:55:30.752Z,45.08
2023-01-04T07:58:04.287Z,49.67
2023-01-04T08:00:37.718Z,51.53
2023-01-04T08:03:12.502Z,46.85
2023-01-04T08:05:45.923Z,40.50
2023-01-04T08:08:19.463Z,38.17
2023-01-04T08:10:52.929Z,37.70
2023-01-04T08:13:27.009Z,35.80
2023-01-04T08:16:00.751Z,34.50
2023-01-04T08:18:35.915Z,33.47
2023-01-04T08:21:10.040Z,38.38
2023-01-04T08:23:43.313Z,44.78
2023-01-04T08:26:17.841Z,48.67
2023-01-04T08:28:51.992Z,48.25
2023-01-04T08:34:03.942Z,45.78
2023-01-04T08:36:46.506Z,45.30
2023-01-04T08:39:21.728Z,42.40
2023-01-04T08:41:58.767Z,43.63
2023-01-04T08:44:35.170Z,42.42
2023-01-04T08:47:08.759Z,39.95
2023-01-04T08:49:43.445Z,31.67
2023-01-04T08:52:17.109Z,23.25
2023-01-04T08:54:51.199Z,23.77
2023-01-04T08:59:57.909Z,19.50
2023-01-04T09:05:08.042Z,21.77
2023-01-04T09:07:41.559Z,20.65
2023-01-04T09:10:15.217Z,22.83
2023-01-04T09:12:51.145Z,20.30
2023-01-04T09:15:24.849Z,21.58
2023-01-04T09:18:29.803Z,20.50
2023-01-04T09:20:52.989Z,18.50
2023-01-04T09:23:26.195Z,21.23
2023-01-04T09:26:03.212Z,20.45
2023-01-04T09:28:40.087Z,21.98
2023-01-04T09:31:15.340Z,39.90
2023-01-04T09:34:13.565Z,28.42
2023-01-04T09:36:44.099Z,19.02
2023-01-04T09:39:22.962Z,26.33
2023-01-04T09:41:58.986Z,18.58
2023-01-04T09:47:38.549Z,18.67
2023-01-04T09:50:17.606Z,20.45
2023-01-04T09:53:02.415Z,18.92
2023-01-04T09:55:41.307Z,18.90
2023-01-04T09:58:26.960Z,19.13
2023-01-04T10:01:04.829Z,18.80
2023-01-04T10:03:40.903Z,20.48
2023-01-04T10:06:15.749Z,18.45
2023-01-04T10:08:50.968Z,18.30
2023-01-04T10:11:38.338Z,17.73
2023-01-04T10:14:44.973Z,19.38
2023-01-04T10:18:13.749Z,18.40
2023-01-04T10:23:59.829Z,17.98
2023-01-04T10:26:38.932Z,17.63
2023-01-04T10:29:31.315Z,18.27
2023-01-04T10:32:12.953Z,18.02
2023-01-04T10:34:47.908Z,18.75
2023-01-04T10:37:24.750Z,18.65
2023-01-04T10:39:59.803Z,18.45
2023-01-04T10:42:35.352Z,18.38
2023-01-04T10:45:16.315Z,18.45
2023-01-04T10:48:03.879Z,19.70
2023-01-04T10:50:45.587Z,21.52
2023-01-04T10:53:25.176Z,20.33
2023-01-04T10:56:23.945Z,20.40
2023-01-04T10:59:06.633Z,20.92
2023-01-04T11:01:46.319Z,20.10
2023-01-04T11:04:25.061Z,19.58
2023-01-04T11:07:03.268Z,20.35
2023-01-04T11:09:43.464Z,18.70
2023-01-04T11:12:21.496Z,22.17
2023-01-04T11:14:55.768Z,21.98
2023-01-04T11:17:29.948Z,22.05
2023-01-04T11:20:03.237Z,18.48
2023-01-04T11:22:41.652Z,20.17
2023-01-04T11:25:36.289Z,18.85
2023-01-04T11:28:19.267Z,19.20
2023-01-04T11:31:01.689Z,19.48
2023-01-04T11:33:57.224Z,19.88
2023-01-04T11:36:39.578Z,18.98
2023-01-04T11:39:20.949Z,19.40
2023-01-04T11:42:02.884Z,20.40
2023-01-04T11:44:38.516Z,22.52
2023-01-04T11:47:20.104Z,21.65
2023-01-04T11:49:53.858Z,20.88
2023-01-04T11:52:32.196Z,19.92
2023-01-04T11:55:18.632Z,19.02
2023-01-04T11:58:07.337Z,21.60
2023-01-04T12:00:51.932Z,18.90
2023-01-04T12:03:28.474Z,20.23
2023-01-04T12:06:02.223Z,19.80
2023-01-04T12:08:37.634Z,20.20
2023-01-04T12:11:20.669Z,21.95
2023-01-04T12:13:54.482Z,19.52
2023-01-04T12:16:43.324Z,20.48
2023-01-04T12:19:18.227Z,20.80
2023-01-04T12:21:54.477Z,22.88
2023-01-04T12:24:31.445Z,19.27
2023-01-04T12:27:05.206Z,20.85
2023-01-04T12:32:43.134Z,21.90
2023-01-04T12:36:03.021Z,18.20
2023-01-04T12:39:06.193Z,21.00
2023-01-04T12:42:19.308Z,20.33
2023-01-04T12:45:23.170Z,20.73
2023-01-04T12:48:15.695Z,20.13
2023-01-04T12:51:32.810Z,20.00
2023-01-04T12:54:07.278Z,20.50
2023-01-04T12:57:17.744Z,18.75
2023-01-04T12:59:57.195Z,18.25
2023-01-04T13:02:32.402Z,20.25
2023-01-04T13:08:29.265Z,22.58
2023-01-04T13:11:06.249Z,20.33
2023-01-04T13:13:50.387Z,20.90
2023-01-04T13:16:31.354Z,21.67
2023-01-04T13:19:21.856Z,20.85
2023-01-04T13:21:56.945Z,20.55
2023-01-04T13:24:34.298Z,22.70
2023-01-04T13:27:10.437Z,23.13
2023-01-04T13:29:44.216Z,22.00
2023-01-04T13:32:23.981Z,21.17
2023-01-04T13:35:00.115Z,20.50
2023-01-04T13:37:38.062Z,22.77
2023-01-04T13:40:24.822Z,22.33
2023-01-04T13:43:11.295Z,20.65
2023-01-04T13:46:05.832Z,20.50
2023-01-04T13:48:42.893Z,19.70
2023-01-04T13:51:18.343Z,20.65
2023-01-04T13:53:58.181Z,21.05
2023-01-04T13:56:33.780Z,21.25
2023-01-04T13:59:10.594Z,22.00
2023-01-04T14:01:45.775Z,21.15
2023-01-04T14:04:26.614Z,20.50
2023-01-04T14:07:01.913Z,23.08
2023-01-04T14:09:46.299Z,24.27
2023-01-04T14:14:58.513Z,22.27
2023-01-04T14:17:36.365Z,22.83
2023-01-04T14:20:34.624Z,24.85
2023-01-04T14:23:27.452Z,21.00
2023-01-04T14:26:03.000Z,22.73
2023-01-04T14:28:49.106Z,23.10
2023-01-04T14:31:33.295Z,22.80
2023-01-04T14:34:08.930Z,22.90
2023-01-04T14:36:44.243Z,21.60
2023-01-04T14:39:26.963Z,31.27
2023-01-04T14:42:01.669Z,28.02
2023-01-04T14:44:36.353Z,27.38
2023-01-04T14:47:12.874Z,28.52
2023-01-04T14:49:52.694Z,30.73
2023-01-04T14:52:26.062Z,35.30
2023-01-04T14:55:00.001Z,32.90
2023-01-04T14:57:38.238Z,29.90
2023-01-04T15:00:18.995Z,30.63
2023-01-04T15:02:53.185Z,33.78
2023-01-04T15:05:28.071Z,32.13
2023-01-04T15:08:03.185Z,34.17
2023-01-04T15:10:37.459Z,33.88
2023-01-04T15:15:46.176Z,33.17
2023-01-04T15:18:19.652Z,32.50
2023-01-04T15:20:52.897Z,34.30
2023-01-04T15:23:26.166Z,52.35
2023-01-04T15:26:01.922Z,51.88
2023-01-04T15:28:36.870Z,40.40
2023-01-04T15:31:12.632Z,47.88
2023-01-04T15:33:46.070Z,56.05
2023-01-04T15:36:23.720Z,51.75
2023-01-04T15:38:57.832Z,50.03
2023-01-04T15:41:48.417Z,53.95
2023-01-04T15:44:23.195Z,55.95
2023-01-04T15:46:59.573Z,60.75
2023-01-04T15:49:34.319Z,63.85
2023-01-04T15:52:09.167Z,70.60
2023-01-04T15:54:42.947Z,64.43
2023-01-04T15:57:16.197Z,59.25
2023-01-04T15:59:50.933Z,84.25
2023-01-04T16:02:24.542Z,80.45
2023-01-04T16:04:57.869Z,80.40
2023-01-04T16:07:36.158Z,79.55
2023-01-04T16:10:10.388Z,79.57
2023-01-04T16:12:45.984Z,94.15
2023-01-04T16:15:23.176Z,85.68
2023-01-04T16:17:56.425Z,85.32
2023-01-04T16:20:30.000Z,90.43
2023-01-04T16:23:03.270Z,90.15
2023-01-04T16:25:36.561Z,89.22
2023-01-04T16:28:10.115Z,83.95
2023-01-04T16:30:44.952Z,69.32
2023-01-04T16:33:18.436Z,82.10
2023-01-04T16:35:59.277Z,81.75
2023-01-04T16:38:33.230Z,77.25
2023-01-04T16:41:07.806Z,81.93
2023-01-04T16:43:44.940Z,80.32
2023-01-04T16:46:25.554Z,77.50
2023-01-04T16:49:00.813Z,80.30
2023-01-04T16:51:35.977Z,77.70
2023-01-04T16:54:11.535Z,78.43
2023-01-04T16:56:49.182Z,77.45
2023-01-04T16:59:22.664Z,80.68
2023-01-04T17:01:58.349Z,81.18
2023-01-04T17:04:31.773Z,85.72
2023-01-04T17:07:04.956Z,93.63
2023-01-04T17:09:41.247Z,85.95
2023-01-04T17:18:04.894Z,101.75
2023-01-04T17:20:39.192Z,86.40
2023-01-04T17:23:12.741Z,99.35
2023-01-04T17:25:46.942Z,93.25
2023-01-04T17:28:24.923Z,89.78
2023-01-04T17:30:59.773Z,91.70
2023-01-04T17:33:35.082Z,93.53
2023-01-04T17:36:11.311Z,102.28
2023-01-04T17:38:44.897Z,101.35
2023-01-04T17:41:20.150Z,101.80
2023-01-04T17:43:55.632Z,103.47
2023-01-04T17:46:32.567Z,104.72
2023-01-04T17:49:31.494Z,106.30
2023-01-04T17:52:03.596Z,110.55
2023-01-04T17:54:37.054Z,110.93
2023-01-04T17:57:10.375Z,110.13
2023-01-04T17:59:43.769Z,109.85
2023-01-04T18:02:17.551Z,112.95
2023-01-04T18:04:52.904Z,116.07
2023-01-04T18:07:26.294Z,119.65
2023-01-04T18:10:00.045Z,124.63
2023-01-04T18:12:34.050Z,117.35
2023-01-04T18:17:42.356Z,101.38
2023-01-04T18:20:24.636Z,99.07
2023-01-04T18:22:58.692Z,102.88
2023-01-04T18:25:33.905Z,105.90
2023-01-04T18:28:07.470Z,95.25
2023-01-04T18:30:40.873Z,88.93
2023-01-04T18:33:14.373Z,77.78
2023-01-04T18:35:49.223Z,76.63
2023-01-04T18:38:22.597Z,79.72
2023-01-04T18:40:56.017Z,77.60
2023-01-04T18:46:07.323Z,72.17
2023-01-04T18:48:40.539Z,78.25
2023-01-04T18:51:15.938Z,71.15
2023-01-04T18:53:50.011Z,73.03
2023-01-04T18:56:23.784Z,62.58
2023-01-04T19:01:31.863Z,62.00
2023-01-04T19:04:06.055Z,63.20
2023-01-04T19:06:41.523Z,63.92
2023-01-04T19:09:14.839Z,54.95
2023-01-04T19:11:52.898Z,54.53
2023-01-04T19:14:26.757Z,54.17
2023-01-04T19:17:00.669Z,50.50
2023-01-04T19:19:35.103Z,51.80
2023-01-04T19:22:09.805Z,53.05
2023-01-04T19:24:43.341Z,46.80
2023-01-04T19:27:16.520Z,47.03
2023-01-04T19:29:50.178Z,48.00
2023-01-04T19:32:27.256Z,45.70
2023-01-04T19:35:03.589Z,44.75
2023-01-04T19:37:38.229Z,47.83
2023-01-04T19:40:12.306Z,43.83
2023-01-04T19:42:45.605Z,45.08
2023-01-04T19:45:19.402Z,44.97
2023-01-04T19:47:52.911Z,45.08
2023-01-04T19:50:26.103Z,45.97
2023-01-04T19:53:01.828Z,44.20
2023-01-04T19:55:35.193Z,48.15
2023-01-04T19:58:08.881Z,50.92
2023-01-04T20:03:15.880Z,50.15
2023-01-04T20:05:49.504Z,53.50
2023-01-04T20:08:24.304Z,55.40
2023-01-04T20:10:58.746Z,54.17
2023-01-04T20:13:34.189Z,53.70
2023-01-04T20:16:08.973Z,52.60
2023-01-04T20:18:43.487Z,53.47
2023-01-04T20:21:17.067Z,53.90
2023-01-04T20:23:51.931Z,52.63
2023-01-04T20:26:25.197Z,52.13
2023-01-04T20:28:59.951Z,55.38
2023-01-04T20:31:34.516Z,52.33
2023-01-04T20:34:08.273Z,51.38
2023-01-04T20:36:41.660Z,52.67
2023-01-04T20:39:16.356Z,59.28
2023-01-04T20:42:07.107Z,75.18
2023-01-04T20:44:40.872Z,82.13
2023-01-04T20:47:14.192Z,78.15
2023-01-04T20:49:48.022Z,89.07
2023-01-04T20:52:21.325Z,97.00
2023-01-04T20:54:55.927Z,99.78
2023-01-04T20:57:29.864Z,94.43
2023-01-04T21:00:03.632Z,95.00
2023-01-04T21:02:38.831Z,97.97
2023-01-04T21:05:12.189Z,92.05
2023-01-04T21:07:45.548Z,96.25
2023-01-04T21:10:20.423Z,96.47
2023-01-04T21:12:54.466Z,101.07
2023-01-04T21:15:28.931Z,91.65
2023-01-04T21:18:02.202Z,77.15
2023-01-04T21:20:39.832Z,86.90
2023-01-04T21:23:16.373Z,87.53
2023-01-04T21:25:51.722Z,78.93
2023-01-04T21:28:25.483Z,71.25
2023-01-04T21:30:58.885Z,73.25
2023-01-04T21:33:32.232Z,72.40
2023-01-04T21:36:11.102Z,70.22
2023-01-04T21:38:44.889Z,68.47
2023-01-04T21:41:24.948Z,70.50
2023-01-04T21:43:59.412Z,68.47
2023-01-04T21:46:32.745Z,71.95
2023-01-04T21:49:06.372Z,73.38
2023-01-04T21:51:39.819Z,66.20
2023-01-04T21:54:13.085Z,68.28
2023-01-04T21:56:48.359Z,69.38
2023-01-04T21:59:21.650Z,70.60
2023-01-04T22:01:55.066Z,71.10
2023-01-04T22:04:28.433Z,63.97
2023-01-04T22:07:01.646Z,62.20
2023-01-04T22:09:34.854Z,55.00
2023-01-04T22:12:10.309Z,55.90
2023-01-04T22:14:44.371Z,53.75
2023-01-04T22:17:18.128Z,50.28
2023-01-04T22:19:51.351Z,47.83
2023-01-04T22:22:24.593Z,56.72
2023-01-04T22:24:58.601Z,51.78
2023-01-04T22:27:33.244Z,54.95
2023-01-04T22:30:08.127Z,53.90
2023-01-04T22:32:41.675Z,57.20
2023-01-04T22:35:14.988Z,55.15
2023-01-04T22:37:48.210Z,53.50
2023-01-04T22:40:21.531Z,49.90
2023-01-04T22:42:56.232Z,52.33
2023-01-04T22:45:29.845Z,52.85
2023-01-04T22:48:03.544Z,50.70
2023-01-04T22:50:39.404Z,50.38
2023-01-04T22:53:12.976Z,48.47
2023-01-04T22:56:17.678Z,46.58
2023-01-04T22:58:44.327Z,44.65
2023-01-04T23:01:20.769Z,45.67
2023-01-04T23:03:55.115Z,39.85
2023-01-04T23:06:30.357Z,40.55
2023-01-04T23:09:06.176Z,44.47
2023-01-04T23:11:41.113Z,41.17
2023-01-04T23:14:18.654Z,40.92
2023-01-04T23:16:52.304Z,42.95
2023-01-04T23:19:27.372Z,41.55
2023-01-04T23:22:00.833Z,40.70
2023-01-04T23:24:35.795Z,44.15
2023-01-04T23:27:09.274Z,41.95
2023-01-04T23:29:44.026Z,43.67
2023-01-04T23:32:17.271Z,41.50
2023-01-04T23:34:51.572Z,42.55
2023-01-04T23:37:25.247Z,41.00
2023-01-04T23:39:58.687Z,41.42
2023-01-04T23:42:31.854Z,40.15
2023-01-04T23:45:08.055Z,40.42
2023-01-04T23:47:41.170Z,41.10
2023-01-04T23:50:14.585Z,39.92
2023-01-04T23:52:48.085Z,40.10
2023-01-04T23:55:21.392Z,38.10
2023-01-04T23:57:54.780Z,40.95
